ETEB/QOB METAR and TAF weather

Enter ICAO airport designator
Station Type Date Time Source
ETEB METAR 2019/02/23 02:16 UTC NOAA

ETEB 230216Z AUTO 09006KT 9999 SCT013 00/M02 A3067 RMK AO2 SLP416 $


Station Type Date Time Source
ETEB Decoded METAR 2019/02/23 02:16 UTC NOAA

Ansbach / Katterbach, Germany (ETEB) 49-19N 010-38E 476M
Feb 22, 2019 - 09:16 PM EST / 2019.02.23 0216 UTC
Wind: from the E (090 degrees) at 7 MPH (6 KT):0
Visibility: greater than 7 mile(s):0
Sky conditions: partly cloudy
Temperature: 32 F (0 C)
Windchill: 24 F (-4 C):1
Dew Point: 28 F (-2 C)
Relative Humidity: 86%
Pressure (altimeter): 30.67 in. Hg (1038 hPa)
ob: ETEB 230216Z AUTO 09006KT 9999 SCT013 00/M02 A3067 RMK AO2 SLP416
cycle: 2

Station Type Date Time Source
ETEB TAF 2019/02/22 19:57 UTC NOAA

TAF
AMD ETEB 221954Z 2219/2320 36009KT 9999 FEW020 BKN035 QNH3050INS
BECMG 2220/2221 04009KT 9999 SCT010 BKN020 QNH3059INS
BECMG 2223/2224 09006KT 9999 FEW020 QNH3065INS
BECMG 2306/2307 10012KT 9999 SKC QNH3062INS TX10/2314Z TNM04/2304Z LAST NO
AMDS AFT 2219 NEXT 2422


Example: see airport list